Rincon, Arizona
Current Conditions -  °F | °C
As of 7:58 PM on Sunday 19 Oct 2014 (Local Time) from KDMA Reporting Station
Few Clouds Few Clouds  
Wind Chill: 67°   Ceiling: Unl
Heat Index: 67°   Visibility: 10mi
Dew Point: 54°   Wind: 5mph
Humidity: 63%   Direction: 40°NE
Pressure: 29.94"   Gusts: NA
Location:  32.2086°N, 110.558°W
Report Text: KDMA 200258Z AUTO 04004KT 10SM FEW170 19/12 A2994 RMK AO2 SLP109 T01920121 52018 $
Loading
Personal Weather Stations






























Interactive Weather Map
Tropical Storm Tracking
New forecast layout! Learn more

10-Day Weather Forecast

Advertisements
Track Severe Weather on mobile